Time;durP1;ratioP1;P1;durP2;ratioP2;P2;SDS_P1;SDS_P2;PMS_P1;PMS_P2;Temp;Humidity;BMP_temperature;BMP_pressure;BME280_temperature;BME280_humidity;BME280_pressure;Samples;Min_cycle;Max_cycle;Signal;HPM_P1;HPM_P2
2023/12/29 00:01:38;;;;;;;8.82;6.70;;;10.40;24.00;;;8.86;100.00;100524.25;4952721;28;20098;-76
2023/12/29 00:04:05;;;;;;;7.50;6.10;;;10.40;23.50;;;9.26;100.00;100599.75;4955593;28;20130;-80
2023/12/29 00:06:32;;;;;;;7.15;6.20;;;10.40;21.90;;;8.90;100.00;100531.19;4986846;28;20505;-78
2023/12/29 00:09:00;;;;;;;6.82;6.10;;;11.20;19.40;;;9.31;100.00;100592.69;4990571;28;20050;-83
2023/12/29 00:11:27;;;;;;;8.93;6.97;;;10.90;19.80;;;9.22;100.00;100572.72;4975153;28;20481;-81
2023/12/29 00:13:54;;;;;;;7.32;6.47;;;10.50;17.80;;;9.11;100.00;100548.38;4990409;28;20038;-80
2023/12/29 00:16:21;;;;;;;6.50;5.90;;;10.50;17.70;;;9.30;100.00;100577.84;4985586;28;20560;-79
2023/12/29 00:18:48;;;;;;;11.18;7.45;;;10.50;16.10;;;9.28;100.00;100569.09;4980487;28;20046;-79
2023/12/29 00:21:15;;;;;;;8.23;7.18;;;10.60;14.90;;;9.28;100.00;100561.22;4985823;28;20144;-79
2023/12/29 00:23:49;;;;;;;9.65;7.25;;;10.50;13.50;;;9.26;100.00;100554.28;4970267;28;20469;-77
2023/12/29 00:26:17;;;;;;;9.80;6.93;;;10.50;14.40;;;8.97;100.00;100531.97;4962933;28;20109;-78
2023/12/29 00:28:54;;;;;;;8.85;7.82;;;10.40;15.80;;;9.30;100.00;100587.47;4983176;28;20035;-77
2023/12/29 00:31:21;;;;;;;11.18;7.63;;;10.40;18.00;;;9.04;100.00;100552.84;4989262;28;20145;-79
2023/12/29 00:33:51;;;;;;;9.05;7.32;;;10.90;18.40;;;9.18;100.00;100570.16;4973961;28;20619;-79
2023/12/29 00:36:22;;;;;;;7.72;6.93;;;10.40;17.90;;;9.10;100.00;100548.38;4985850;28;20061;-78
2023/12/29 00:38:52;;;;;;;9.52;6.35;;;10.40;18.20;;;9.10;100.00;100549.25;4985107;28;20085;-79
2023/12/29 00:41:19;;;;;;;10.05;7.00;;;10.50;18.80;;;9.06;100.00;100555.47;4979835;28;20051;-79
2023/12/29 00:43:46;;;;;;;7.90;6.50;;;10.40;20.40;;;9.20;100.00;100568.38;4969090;28;20043;-79
2023/12/29 00:46:18;;;;;;;9.07;8.07;;;10.40;20.40;;;9.35;100.00;100572.50;4969825;28;20056;-78
2023/12/29 00:48:46;;;;;;;7.95;6.85;;;10.40;20.60;;;9.20;100.00;100555.22;4981714;28;20073;-78
2023/12/29 00:51:13;;;;;;;10.57;6.57;;;10.40;20.20;;;9.12;100.00;100557.97;4974214;28;20051;-79
2023/12/29 00:53:40;;;;;;;8.20;6.95;;;10.40;22.00;;;9.15;100.00;100541.31;4964700;28;20078;-79
2023/12/29 00:56:11;;;;;;;9.00;7.22;;;10.40;22.70;;;9.15;100.00;100544.78;4983581;28;20795;-79
2023/12/29 00:58:39;;;;;;;9.00;6.68;;;10.30;25.50;;;8.93;100.00;100510.13;4984144;28;20094;-79
2023/12/29 01:01:08;;;;;;;12.38;9.05;;;10.30;27.30;;;9.04;100.00;100538.84;4971430;28;20046;-79
2023/12/29 01:03:35;;;;;;;9.52;7.40;;;10.40;27.40;;;8.92;100.00;100529.41;4984173;28;20480;-79
2023/12/29 01:06:06;;;;;;;8.70;7.05;;;10.30;28.30;;;8.87;100.00;100547.81;4979422;28;20040;-79
2023/12/29 01:08:33;;;;;;;11.13;7.43;;;10.20;29.20;;;8.99;100.00;100549.44;4980266;28;20138;-78
2023/12/29 01:11:00;;;;;;;11.55;7.10;;;10.20;30.40;;;8.98;100.00;100544.19;4987264;28;20053;-79
2023/12/29 01:13:27;;;;;;;11.65;8.05;;;10.20;30.10;;;9.15;100.00;100578.94;4981780;28;20164;-79
2023/12/29 01:15:55;;;;;;;10.25;7.80;;;10.30;30.00;;;8.89;100.00;100534.69;4965986;28;20093;-80
2023/12/29 01:18:22;;;;;;;9.82;8.60;;;10.70;29.60;;;9.05;100.00;100551.94;4973879;28;20532;-81
2023/12/29 01:20:49;;;;;;;11.27;8.27;;;10.70;30.50;;;8.40;100.00;100468.88;4973965;28;20058;-78
2023/12/29 01:23:17;;;;;;;12.30;7.25;;;11.20;31.80;;;8.99;100.00;100545.91;4983321;28;20516;-77
2023/12/29 01:25:44;;;;;;;8.23;7.43;;;10.90;31.80;;;8.95;100.00;100537.22;4955248;28;20054;-79
2023/12/29 01:28:11;;;;;;;7.93;6.90;;;10.30;31.40;;;9.07;100.00;100552.78;4982070;28;20108;-80
2023/12/29 01:30:38;;;;;;;12.27;8.20;;;10.20;30.70;;;8.94;100.00;100530.22;4988594;28;20057;-78
2023/12/29 01:33:06;;;;;;;8.15;6.97;;;10.20;31.90;;;8.96;100.00;100528.44;4988759;28;20044;-79
2023/12/29 01:35:33;;;;;;;8.82;7.25;;;10.30;31.50;;;9.14;100.00;100563.22;4969077;28;20050;-78
2023/12/29 01:38:02;;;;;;;9.27;6.95;;;10.30;30.20;;;9.00;100.00;100535.41;4948843;28;20053;-79
2023/12/29 01:40:29;;;;;;;8.40;6.78;;;10.30;29.90;;;9.06;100.00;100539.72;4988513;28;20054;-79
2023/12/29 01:42:56;;;;;;;9.85;7.03;;;10.30;29.20;;;9.05;100.00;100537.94;4978013;28;20561;-78
2023/12/29 01:45:26;;;;;;;9.55;7.15;;;10.30;29.00;;;9.18;100.00;100557.03;4980466;28;20051;-77
2023/12/29 01:47:53;;;;;;;12.20;6.60;;;10.30;27.90;;;8.99;100.00;100527.53;4971966;28;20066;-80
2023/12/29 01:50:23;;;;;;;12.43;6.20;;;10.30;26.70;;;9.04;100.00;100513.47;4972857;28;20042;-80
2023/12/29 01:52:52;;;;;;;8.02;6.97;;;10.30;25.70;;;8.99;100.00;100517.06;4966447;28;20070;-79
2023/12/29 01:55:23;;;;;;;;;;;10.30;24.50;;;8.94;100.00;100519.75;4965921;28;20054;-79
2023/12/29 01:57:50;;;;;;;;;;;10.20;23.20;;;8.86;100.00;100513.75;4972359;28;19947;-79
2023/12/29 02:00:18;;;;;;;7.35;6.45;;;10.20;26.00;;;8.79;100.00;100500.69;4951914;28;19951;-79
2023/12/29 02:02:49;;;;;;;6.85;5.88;;;10.20;24.60;;;8.76;100.00;100508.63;4965638;28;20061;-79
2023/12/29 02:05:20;;;;;;;8.55;6.25;;;10.20;23.80;;;8.94;100.00;100532.84;4954422;28;20493;-79
2023/12/29 02:07:49;;;;;;;6.88;6.18;;;10.10;24.40;;;8.94;100.00;100530.22;4984475;28;20142;-79
2023/12/29 02:10:17;;;;;;;;;;;10.40;22.90;;;8.94;100.00;100533.75;4987241;28;20076;-79
2023/12/29 02:12:53;;;;;;;9.25;5.97;;;10.60;21.60;;;8.61;100.00;100485.22;4969289;28;20392;-79
2023/12/29 02:15:22;;;;;;;6.95;5.70;;;10.10;21.20;;;8.93;100.00;100515.38;4965200;28;20485;-77
2023/12/29 02:18:00;;;;;;;10.48;6.07;;;10.30;20.50;;;8.97;100.00;100524.94;4999718;28;20051;-79
2023/12/29 02:20:31;;;;;;;7.18;5.65;;;10.10;18.90;;;8.89;100.00;100498.81;4981220;28;20046;-79
2023/12/29 02:22:58;;;;;;;;;;;10.10;18.90;;;8.89;100.00;100497.97;4956343;28;20074;-77
2023/12/29 02:25:25;;;;;;;7.15;5.25;;;10.10;18.40;;;8.83;100.00;100493.66;4971183;28;20377;-79
2023/12/29 02:28:22;;;;;;;7.05;5.97;;;10.10;17.70;;;8.72;100.00;100478.09;4987869;28;20047;-78
2023/12/29 02:31:01;;;;;;;8.52;6.53;;;10.10;17.50;;;8.79;100.00;100505.94;4988590;28;20074;-79
2023/12/29 02:33:32;;;;;;;8.88;6.90;;;10.10;17.00;;;8.20;100.00;100406.22;4976913;28;20707;-78
2023/12/29 02:36:03;;;;;;;6.65;5.63;;;11.20;17.50;;;8.61;100.00;100459.00;4969835;28;20047;-80
2023/12/29 02:38:33;;;;;;;6.57;5.88;;;9.90;18.30;;;8.12;100.00;100390.59;4969838;28;20039;-80
2023/12/29 02:41:01;;;;;;;7.53;6.25;;;10.60;19.20;;;8.84;100.00;100499.78;4988688;28;20038;-80
2023/12/29 02:43:30;;;;;;;8.18;6.70;;;10.50;18.00;;;8.25;100.00;100424.53;4970161;28;20165;-78
2023/12/29 02:45:57;;;;;;;6.32;5.68;;;10.80;17.30;;;8.25;100.00;100425.38;4979072;28;20057;-79
2023/12/29 02:48:25;;;;;;;8.13;6.20;;;10.60;17.10;;;8.22;100.00;100415.81;4962621;28;20039;-79
2023/12/29 02:50:52;;;;;;;6.80;6.10;;;10.00;19.10;;;8.67;100.00;100486.91;4970114;28;20047;-78
2023/12/29 02:53:20;;;;;;;7.97;6.32;;;10.00;19.00;;;8.71;100.00;100483.34;4959533;28;20039;-78
2023/12/29 02:55:47;;;;;;;7.93;5.50;;;10.00;17.40;;;8.83;100.00;100503.31;4971262;28;20104;-78
2023/12/29 02:58:14;;;;;;;7.13;5.88;;;10.00;16.10;;;8.47;100.00;100441.66;4979592;28;20055;-79
2023/12/29 03:00:41;;;;;;;6.80;6.20;;;10.00;12.70;;;8.61;100.00;100466.88;4985620;28;20061;-78
2023/12/29 03:03:08;;;;;;;7.47;6.78;;;9.70;10.20;;;8.48;100.00;100456.50;4972353;28;20585;-77
2023/12/29 03:05:35;;;;;;;6.85;6.05;;;10.00;11.30;;;8.74;100.00;100505.16;4987993;28;20595;-82
2023/12/29 03:08:02;;;;;;;7.53;6.72;;;10.00;11.60;;;8.45;100.00;100467.06;4988497;28;20065;-80
2023/12/29 03:10:30;;;;;;;5.85;5.22;;;9.90;11.90;;;8.61;100.00;100478.25;4972092;28;20153;-79
2023/12/29 03:12:57;;;;;;;9.18;6.32;;;10.00;12.20;;;8.57;100.00;100467.81;4977170;28;20062;-80
2023/12/29 03:15:24;;;;;;;8.18;7.38;;;9.90;8.80;;;8.62;100.00;100495.72;4954845;28;20061;-80
2023/12/29 03:17:51;;;;;;;6.70;6.00;;;9.90;10.20;;;8.68;100.00;100501.75;4988270;28;20101;-80
2023/12/29 03:20:19;;;;;;;8.48;7.00;;;9.90;9.70;;;8.43;100.00;100453.09;4971699;28;20046;-80
2023/12/29 03:22:46;;;;;;;8.82;7.30;;;9.90;9.50;;;8.60;100.00;100488.75;4987406;28;20126;-80
2023/12/29 03:25:13;;;;;;;7.05;6.22;;;9.90;9.50;;;8.66;100.00;100499.13;4957863;28;20132;-80
2023/12/29 03:27:40;;;;;;;6.90;6.15;;;9.90;8.80;;;8.37;100.00;100461.06;4976439;28;20525;-79
2023/12/29 03:30:08;;;;;;;6.93;6.22;;;9.90;10.30;;;8.58;100.00;100493.16;4971863;28;20512;-79
2023/12/29 03:32:35;;;;;;;7.25;6.10;;;9.90;14.80;;;8.62;100.00;100492.22;4984985;28;20058;-79
2023/12/29 03:35:04;;;;;;;7.82;7.05;;;9.90;14.30;;;8.51;100.00;100461.78;4983936;28;20047;-79
2023/12/29 03:37:31;;;;;;;7.78;6.85;;;9.90;11.00;;;8.70;100.00;100500.84;4982882;28;20050;-78
2023/12/29 03:39:58;;;;;;;12.18;6.57;;;9.90;12.90;;;8.46;100.00;100460.91;4963060;28;20141;-80
2023/12/29 03:42:25;;;;;;;7.82;6.15;;;10.70;16.40;;;8.67;100.00;100494.78;4963420;28;20104;-80
2023/12/29 03:44:53;;;;;;;8.50;7.03;;;9.90;18.40;;;8.68;100.00;100492.13;4986237;28;20049;-80
2023/12/29 03:47:21;;;;;;;6.63;5.75;;;9.90;18.50;;;8.56;100.00;100474.78;4979620;28;20065;-79
2023/12/29 03:49:48;;;;;;;6.13;5.32;;;9.90;20.70;;;8.64;100.00;100501.81;4971394;28;20053;-79
2023/12/29 03:52:16;;;;;;;10.30;6.00;;;10.00;21.80;;;8.56;100.00;100495.78;4955332;28;20042;-79
2023/12/29 03:54:43;;;;;;;7.30;5.90;;;9.90;21.10;;;8.68;100.00;100510.50;4962600;28;20082;-80
2023/12/29 03:57:10;;;;;;;5.85;5.25;;;10.40;23.00;;;8.59;100.00;100492.25;4967682;28;20145;-79
2023/12/29 03:59:40;;;;;;;8.90;5.85;;;9.90;24.30;;;8.57;100.00;100473.91;4960552;28;20042;-80
2023/12/29 04:02:07;;;;;;;7.43;5.82;;;9.80;26.60;;;8.68;100.00;100497.38;4968960;28;20137;-79
2023/12/29 04:04:38;;;;;;;6.38;5.75;;;9.90;27.30;;;8.60;100.00;100470.38;4986786;28;20054;-77
2023/12/29 04:07:06;;;;;;;6.50;5.70;;;9.90;29.20;;;8.43;100.00;100453.09;4983467;28;20026;-78
2023/12/29 04:09:33;;;;;;;8.68;6.65;;;11.20;29.30;;;8.57;100.00;100486.16;4991464;28;20053;-80
2023/12/29 04:12:02;;;;;;;5.82;5.22;;;9.90;28.50;;;8.61;100.00;100469.50;4990999;28;20140;-80
2023/12/29 04:14:29;;;;;;;8.45;4.80;;;9.90;30.20;;;8.72;100.00;100480.72;4989769;28;20042;-80
2023/12/29 04:16:56;;;;;;;6.97;6.18;;;9.90;30.50;;;8.65;100.00;100464.19;4989123;28;20070;-78
2023/12/29 04:19:23;;;;;;;7.00;5.13;;;10.60;30.50;;;8.64;100.00;100459.84;4973905;28;20058;-79
2023/12/29 04:21:50;;;;;;;5.80;4.97;;;10.00;31.50;;;8.67;100.00;100464.19;4988009;28;20457;-77
2023/12/29 04:24:17;;;;;;;6.78;4.75;;;10.00;31.70;;;8.68;100.00;100471.16;4973770;28;20530;-81
2023/12/29 04:26:44;;;;;;;5.05;4.55;;;10.00;30.60;;;8.81;100.00;100492.81;4974259;28;20537;-80
2023/12/29 04:29:12;;;;;;;5.95;5.25;;;10.00;33.20;;;8.80;100.00;100484.06;4971628;28;20035;-79
2023/12/29 04:31:39;;;;;;;5.50;4.55;;;10.40;33.80;;;8.81;100.00;100490.19;4969150;28;20162;-81
2023/12/29 04:34:06;;;;;;;6.90;4.65;;;10.10;36.60;;;8.87;100.00;100497.97;4974675;28;20549;-78
2023/12/29 04:36:33;;;;;;;7.13;4.57;;;10.10;37.30;;;8.86;100.00;100477.00;4962081;28;20046;-79
2023/12/29 04:39:00;;;;;;;5.57;4.75;;;10.10;38.30;;;8.80;100.00;100456.97;4969918;28;20080;-77
2023/12/29 04:41:27;;;;;;;5.28;4.68;;;10.10;38.80;;;8.79;100.00;100456.09;4971961;28;20081;-79
2023/12/29 04:43:54;;;;;;;5.35;4.15;;;10.10;40.30;;;8.75;100.00;100450.94;4976324;28;20122;-79
2023/12/29 04:46:21;;;;;;;4.40;4.00;;;10.20;40.90;;;9.03;100.00;100487.22;4964327;28;20053;-79
2023/12/29 04:48:48;;;;;;;4.85;4.45;;;10.40;43.70;;;8.75;100.00;100449.19;4979445;28;20050;-79
2023/12/29 04:51:15;;;;;;;5.78;4.40;;;10.30;43.30;;;8.96;100.00;100483.84;4981069;28;20051;-80
2023/12/29 04:53:42;;;;;;;6.03;4.50;;;10.20;45.50;;;8.91;100.00;100475.19;4968677;28;20056;-79
2023/12/29 04:56:10;;;;;;;5.55;4.78;;;10.20;45.80;;;8.92;100.00;100471.66;4980711;28;20082;-79
2023/12/29 04:58:37;;;;;;;6.35;5.10;;;10.60;45.70;;;9.01;100.00;100483.78;4988522;28;20739;-77
2023/12/29 05:01:04;;;;;;;6.18;4.85;;;10.20;44.20;;;8.94;100.00;100464.63;4983049;28;20046;-79
2023/12/29 05:03:32;;;;;;;4.63;4.22;;;10.20;44.20;;;9.05;100.00;100507.31;4964398;28;20075;-77
2023/12/29 05:05:59;;;;;;;5.07;4.30;;;10.30;44.30;;;8.95;100.00;100492.59;4996179;28;20047;-79
2023/12/29 05:08:26;;;;;;;4.80;4.30;;;10.20;46.20;;;8.89;100.00;100469.94;4978731;28;20039;-78
2023/12/29 05:10:53;;;;;;;4.88;4.10;;;10.20;46.00;;;9.03;100.00;100505.59;4955933;28;20085;-78
2023/12/29 05:13:20;;;;;;;5.97;5.40;;;10.20;48.70;;;8.84;100.00;100478.81;4989448;28;20510;-78
2023/12/29 05:15:47;;;;;;;6.15;4.95;;;10.20;49.10;;;8.87;100.00;100497.97;4971812;28;20100;-79
2023/12/29 05:18:14;;;;;;;7.05;5.15;;;10.40;50.80;;;8.97;100.00;100514.44;4984037;28;20054;-79
2023/12/29 05:20:41;;;;;;;5.80;5.18;;;10.20;51.20;;;8.98;100.00;100489.97;4959395;28;20450;-79
2023/12/29 05:23:08;;;;;;;6.03;5.43;;;10.20;51.60;;;8.89;100.00;100466.47;4970502;28;20113;-79
2023/12/29 05:25:39;;;;;;;7.15;5.72;;;10.20;51.60;;;9.03;100.00;100482.00;4983275;28;20145;-79
2023/12/29 05:28:06;;;;;;;5.30;4.80;;;10.20;50.00;;;8.96;100.00;100473.34;4979345;28;20045;-79
2023/12/29 05:30:33;;;;;;;6.85;5.18;;;10.20;47.60;;;8.65;100.00;100424.84;4987685;28;20509;-79
2023/12/29 05:33:00;;;;;;;8.77;7.97;;;10.10;46.90;;;8.64;100.00;100440.59;4972494;28;20614;-80
2023/12/29 05:35:27;;;;;;;7.05;6.35;;;10.10;49.30;;;8.43;100.00;100403.28;4986429;28;20160;-79
2023/12/29 05:37:54;;;;;;;6.82;5.90;;;10.60;50.50;;;8.70;100.00;100453.63;4960420;28;20053;-79
2023/12/29 05:40:24;;;;;;;6.15;5.55;;;10.10;49.80;;;8.90;100.00;100478.69;4961349;28;20149;-79
2023/12/29 05:42:51;;;;;;;6.13;5.53;;;10.40;49.40;;;8.58;100.00;100423.19;4983405;28;20137;-79
2023/12/29 05:45:21;;;;;;;6.15;5.47;;;10.20;47.90;;;8.71;100.00;100450.13;4963787;28;20042;-80
2023/12/29 05:47:48;;;;;;;7.03;5.88;;;10.10;46.40;;;8.68;100.00;100441.41;4970559;28;20050;-79
2023/12/29 05:50:15;;;;;;;6.68;5.47;;;10.00;45.60;;;8.80;100.00;100462.22;4983338;28;20053;-79
2023/12/29 05:52:42;;;;;;;5.88;5.25;;;10.10;46.00;;;8.67;100.00;100442.31;4971657;28;20153;-80
2023/12/29 05:55:09;;;;;;;7.97;5.85;;;10.00;44.80;;;8.64;100.00;100461.56;4978884;28;20058;-80
2023/12/29 05:57:36;;;;;;;9.75;4.88;;;9.90;47.00;;;8.61;100.00;100453.75;4987086;28;20066;-78
2023/12/29 06:00:04;;;;;;;8.43;6.07;;;9.90;49.30;;;8.36;100.00;100420.00;4971936;28;20047;-79
2023/12/29 06:02:37;;;;;;;7.13;5.53;;;9.90;49.00;;;8.54;100.00;100460.84;4980819;28;20090;-78
2023/12/29 06:05:05;;;;;;;8.93;5.90;;;9.80;50.60;;;8.54;100.00;100462.63;4971108;28;20413;-80
2023/12/29 06:07:34;;;;;;;5.63;5.05;;;9.80;50.20;;;8.42;100.00;100437.38;4987694;28;20034;-79
2023/12/29 06:10:01;;;;;;;6.25;5.40;;;9.80;52.40;;;8.61;100.00;100488.72;4956681;28;20047;-78
2023/12/29 06:12:28;;;;;;;6.93;5.65;;;9.80;52.10;;;8.55;100.00;100482.72;4979438;28;20054;-78
2023/12/29 06:14:55;;;;;;;6.90;4.85;;;9.80;52.50;;;7.83;100.00;100383.97;4989701;28;20055;-79
2023/12/29 06:17:22;;;;;;;7.20;6.03;;;9.80;53.90;;;8.53;100.00;100489.72;4982397;28;20539;-79
2023/12/29 06:19:49;;;;;;;5.97;5.35;;;9.80;53.00;;;8.39;100.00;100461.91;4983820;28;20156;-78
2023/12/29 06:22:16;;;;;;;7.03;5.07;;;9.80;54.30;;;8.39;100.00;100461.91;4991729;28;20148;-77
2023/12/29 06:24:43;;;;;;;5.90;5.30;;;9.80;52.90;;;8.49;100.00;100487.09;4988576;28;20073;-78
2023/12/29 06:27:11;;;;;;;9.00;5.68;;;9.80;55.00;;;8.39;100.00;100482.88;4965591;28;20054;-77
2023/12/29 06:29:41;;;;;;;7.90;5.25;;;9.60;56.90;;;8.46;100.00;100502.88;4988568;28;20517;-78
2023/12/29 06:32:08;;;;;;;8.20;5.05;;;9.70;57.90;;;8.38;100.00;100484.63;4965135;28;20052;-78
2023/12/29 06:34:35;;;;;;;6.40;5.40;;;9.70;55.70;;;8.39;100.00;100485.50;4988516;28;20050;-78
2023/12/29 06:37:05;;;;;;;6.35;5.75;;;9.70;56.50;;;8.13;100.00;100447.38;4972262;28;20050;-78
2023/12/29 06:39:32;;;;;;;5.95;5.28;;;9.60;55.70;;;7.74;100.00;100405.06;4972438;28;20409;-80
2023/12/29 06:41:59;;;;;;;6.00;5.40;;;9.80;55.90;;;7.69;100.00;100364.94;4988322;28;20120;-80
2023/12/29 06:44:26;;;;;;;5.13;4.65;;;9.70;56.60;;;7.64;100.00;100365.88;4988034;28;20776;-81
2023/12/29 06:46:53;;;;;;;5.55;5.05;;;9.60;56.00;;;7.76;100.00;100395.44;4971673;28;20718;-80
2023/12/29 06:49:21;;;;;;;6.82;5.45;;;9.60;56.20;;;8.26;100.00;100479.53;4972485;28;20061;-81
2023/12/29 06:51:48;;;;;;;6.15;5.03;;;9.60;57.20;;;8.18;100.00;100473.53;4972284;28;20544;-79
2023/12/29 06:54:15;;;;;;;6.55;5.85;;;9.50;57.70;;;7.71;100.00;100368.41;4988273;28;20046;-78
2023/12/29 06:56:42;;;;;;;6.15;5.55;;;9.60;57.10;;;8.27;100.00;100462.06;4984820;28;20109;-79
2023/12/29 06:59:09;;;;;;;7.45;5.53;;;9.60;56.50;;;7.72;100.00;100380.63;4988634;28;20481;-78
2023/12/29 07:01:40;;;;;;;7.15;5.38;;;9.50;56.50;;;7.90;100.00;100406.63;4971314;28;20050;-79
2023/12/29 07:04:10;;;;;;;5.90;5.40;;;9.60;55.90;;;8.23;100.00;100455.97;4957864;28;20085;-81
2023/12/29 07:06:37;;;;;;;6.13;5.43;;;9.60;55.60;;;7.73;100.00;100393.72;4990309;28;20038;-81
2023/12/29 07:09:05;;;;;;;8.43;4.82;;;9.70;55.70;;;8.21;100.00;100457.75;4973602;28;20102;-80
2023/12/29 07:11:32;;;;;;;7.32;5.47;;;9.50;57.30;;;7.75;100.00;100388.47;4981235;28;20043;-78
2023/12/29 07:13:59;;;;;;;7.55;5.35;;;9.50;57.60;;;8.33;100.00;100475.06;4971803;28;20081;-79
2023/12/29 07:16:27;;;;;;;8.30;6.57;;;8.90;57.30;;;8.27;100.00;100481.25;4989392;28;20096;-79
2023/12/29 07:18:54;;;;;;;6.70;5.93;;;9.90;58.60;;;8.22;100.00;100465.63;4970360;28;20051;-79
2023/12/29 07:21:22;;;;;;;7.38;6.28;;;9.50;58.50;;;7.79;100.00;100390.16;4990071;28;20675;-80
2023/12/29 07:23:49;;;;;;;6.40;5.80;;;9.50;58.90;;;7.80;100.00;100408.47;4991911;28;20046;-79
2023/12/29 07:26:16;;;;;;;7.00;5.13;;;9.50;58.90;;;7.88;100.00;100424.09;4980821;28;20153;-78
2023/12/29 07:28:53;;;;;;;6.47;5.75;;;9.60;57.60;;;7.63;100.00;100374.63;4987163;28;20050;-78
2023/12/29 07:31:21;;;;;;;7.30;6.55;;;8.80;56.70;;;7.51;100.00;100359.94;4959888;28;20089;-79
2023/12/29 07:33:51;;;;;;;6.78;6.10;;;9.50;56.90;;;7.43;100.00;100345.19;4968440;28;20528;-79
2023/12/29 07:36:21;;;;;;;5.93;5.32;;;9.50;57.00;;;8.06;100.00;100449.19;4959685;28;20082;-78
2023/12/29 07:38:48;;;;;;;6.00;5.13;;;9.50;56.90;;;8.33;100.00;100504.78;4979667;28;20106;-80
2023/12/29 07:41:15;;;;;;;5.88;5.30;;;9.60;56.40;;;8.34;100.00;100503.03;4987122;28;20493;-79
2023/12/29 07:43:42;;;;;;;6.80;5.80;;;9.50;55.10;;;8.03;100.00;100449.25;5003260;28;20043;-78
2023/12/29 07:46:09;;;;;;;6.85;6.15;;;9.50;54.90;;;8.20;100.00;100483.13;4963851;28;20512;-78
2023/12/29 07:48:39;;;;;;;6.22;5.30;;;9.50;56.10;;;8.02;100.00;100447.50;4971643;28;20046;-77
2023/12/29 07:51:07;;;;;;;6.28;5.53;;;9.50;56.30;;;8.21;100.00;100473.50;4968512;28;20146;-78
2023/12/29 07:53:34;;;;;;;7.10;6.28;;;9.50;55.60;;;8.27;100.00;100485.66;4976710;28;20046;-79
2023/12/29 07:56:02;;;;;;;5.57;5.07;;;9.50;55.90;;;7.56;100.00;100369.47;4987836;28;20771;-77
2023/12/29 07:58:29;;;;;;;5.97;5.38;;;9.50;56.10;;;7.74;100.00;100416.41;4988237;28;20145;-78
2023/12/29 08:00:56;;;;;;;6.88;6.18;;;10.00;56.80;;;8.33;100.00;100496.06;4986417;28;20050;-79
2023/12/29 08:03:23;;;;;;;5.95;5.18;;;10.00;56.00;;;8.37;100.00;100501.25;4988231;28;20473;-80
2023/12/29 08:05:50;;;;;;;6.72;6.03;;;9.50;55.10;;;8.03;100.00;100448.38;4983492;28;20046;-79
2023/12/29 08:08:17;;;;;;;5.53;5.03;;;9.60;55.90;;;8.29;100.00;100490.00;4981393;28;20047;-80
2023/12/29 08:10:44;;;;;;;6.32;5.72;;;9.50;55.30;;;8.34;100.00;100489.91;4969365;28;20081;-78
2023/12/29 08:13:12;;;;;;;6.18;5.57;;;9.60;55.10;;;8.33;100.00;100477.69;4971276;28;20112;-79
2023/12/29 08:15:39;;;;;;;6.43;5.75;;;9.60;54.80;;;8.45;100.00;100502.91;4968862;28;20050;-78
2023/12/29 08:18:06;;;;;;;6.15;5.55;;;9.60;55.40;;;8.34;100.00;100482.94;5003351;28;20042;-78
2023/12/29 08:20:36;;;;;;;9.60;7.38;;;10.10;56.00;;;8.33;100.00;100493.44;4980828;28;20073;-78
2023/12/29 08:23:03;;;;;;;6.80;5.53;;;9.60;56.10;;;8.29;100.00;100476.00;4986546;28;20046;-79
2023/12/29 08:25:30;;;;;;;6.13;5.40;;;9.70;56.40;;;8.38;100.00;100483.78;4986338;28;20046;-80
2023/12/29 08:27:57;;;;;;;7.03;5.57;;;9.70;57.10;;;7.78;100.00;100404.13;4999497;28;20077;-81
2023/12/29 08:30:25;;;;;;;6.90;6.13;;;9.60;58.50;;;8.45;100.00;100503.75;4968624;28;20440;-79
2023/12/29 08:32:52;;;;;;;8.07;6.07;;;9.70;60.70;;;8.51;100.00;100497.59;4986383;28;20140;-78
2023/12/29 08:35:19;;;;;;;18.52;15.15;;;9.70;62.40;;;8.58;100.00;100506.25;4973319;28;20039;-80
2023/12/29 08:37:46;;;;;;;6.95;5.68;;;9.70;63.30;;;8.57;100.00;100505.38;4978600;28;20405;-79
2023/12/29 08:40:13;;;;;;;6.68;6.07;;;9.70;64.80;;;8.55;100.00;100498.44;4985590;28;20497;-79
2023/12/29 08:42:41;;;;;;;13.88;11.82;;;9.80;64.40;;;8.39;100.00;100467.16;4986072;28;20046;-81
2023/12/29 08:45:08;;;;;;;6.00;5.25;;;9.80;64.10;;;8.56;100.00;100481.81;4982515;28;20049;-78
2023/12/29 08:47:36;;;;;;;8.60;7.80;;;9.90;64.20;;;8.75;100.00;100506.03;4977719;28;20065;-77
2023/12/29 08:50:04;;;;;;;13.88;11.27;;;9.90;63.10;;;8.27;100.00;100441.94;4980206;28;21461;-79
2023/12/29 08:52:32;;;;;;;8.40;7.07;;;9.90;61.20;;;8.74;100.00;100509.53;5002768;28;20105;-79
2023/12/29 08:55:01;;;;;;;5.95;5.07;;;10.00;60.70;;;8.78;100.00;100512.09;4987043;28;20125;-80
2023/12/29 08:57:28;;;;;;;6.63;5.80;;;10.00;61.50;;;8.76;100.00;100502.53;4981721;28;20086;-80
2023/12/29 08:59:55;;;;;;;5.55;5.05;;;10.00;61.60;;;8.86;100.00;100534.75;4983031;28;20467;-78
2023/12/29 09:02:22;;;;;;;6.53;4.78;;;10.00;57.70;;;8.85;100.00;100499.75;4974273;28;20046;-77
2023/12/29 09:04:49;;;;;;;6.35;5.13;;;10.90;57.30;;;8.85;100.00;100502.38;4979901;28;20058;-78
2023/12/29 09:07:16;;;;;;;5.45;4.95;;;10.10;57.80;;;8.67;100.00;100464.19;4979559;28;20073;-78
2023/12/29 09:09:43;;;;;;;13.30;11.88;;;10.10;58.20;;;8.96;100.00;100496.09;4986599;28;20078;-77
2023/12/29 09:12:11;;;;;;;5.50;5.00;;;10.20;54.20;;;9.18;100.00;100525.53;4983931;28;20053;-78
2023/12/29 09:14:38;;;;;;;5.05;4.57;;;10.30;51.30;;;9.06;100.00;100500.34;4992332;28;20038;-76
2023/12/29 09:17:05;;;;;;;5.05;4.50;;;10.30;45.50;;;8.98;100.00;100484.72;4972706;28;20073;-80
2023/12/29 09:19:35;;;;;;;7.00;6.30;;;10.40;42.40;;;9.19;100.00;100511.50;4985383;28;20063;-79
2023/12/29 09:22:06;;;;;;;4.35;3.95;;;10.40;39.80;;;9.34;100.00;100526.13;4981170;28;20487;-78
2023/12/29 09:24:33;;;;;;;6.10;4.70;;;10.40;39.30;;;9.27;100.00;100514.00;4992326;28;20505;-80
2023/12/29 09:27:01;;;;;;;4.80;4.22;;;10.50;36.40;;;9.19;100.00;100493.13;4985155;28;20181;-79
2023/12/29 09:29:28;;;;;;;5.07;4.50;;;10.50;34.40;;;9.42;100.00;100523.38;4979957;28;20034;-79
2023/12/29 09:31:55;;;;;;;5.55;5.05;;;10.70;35.70;;;9.34;100.00;100498.13;4989159;28;20069;-78
2023/12/29 09:34:22;;;;;;;5.45;4.85;;;10.60;27.80;;;9.35;100.00;100494.59;4983767;28;20153;-78
2023/12/29 09:36:49;;;;;;;5.55;4.38;;;10.60;32.40;;;9.40;100.00;100493.66;4978995;28;20062;-79
2023/12/29 09:39:16;;;;;;;9.02;7.72;;;10.70;31.30;;;9.41;100.00;100477.88;4969184;28;20128;-79
2023/12/29 09:41:46;;;;;;;6.68;4.55;;;10.70;28.30;;;9.55;100.00;100500.41;4991797;28;20713;-79
2023/12/29 09:44:15;;;;;;;7.20;3.78;;;11.50;21.30;;;9.06;100.00;100400.59;4958749;28;20143;-79
2023/12/29 09:46:44;;;;;;;5.55;4.65;;;10.80;14.30;;;9.65;100.00;100481.81;4986365;28;20046;-79
2023/12/29 09:49:13;;;;;;;5.10;4.15;;;11.50;13.30;;;9.02;100.00;100380.53;4968040;28;20050;-79
2023/12/29 09:51:41;;;;;;;4.93;3.70;;;11.60;11.10;;;9.50;100.00;100455.84;4981636;28;20089;-82
2023/12/29 09:54:10;;;;;;;4.15;3.85;;;12.10;1.00;;;9.18;100.00;100391.63;4980940;28;20134;-79
2023/12/29 09:56:41;;;;;;;3.75;3.35;;;11.10;1.00;;;9.96;100.00;100497.91;4973675;28;20112;-79
2023/12/29 09:59:13;;;;;;;5.20;4.70;;;11.20;1.00;;;10.07;100.00;100522.22;4974160;28;20047;-78
2023/12/29 10:01:42;;;;;;;4.50;4.10;;;11.20;1.00;;;10.02;100.00;100479.38;4995738;28;20050;-78
2023/12/29 10:04:09;;;;;;;5.00;4.50;;;11.70;1.00;;;10.18;100.00;100516.75;4982623;28;20494;-80
2023/12/29 10:06:41;;;;;;;4.10;3.70;;;11.30;1.00;;;9.93;100.00;100459.41;4981780;28;20050;-80
2023/12/29 10:09:12;;;;;;;3.90;3.60;;;11.30;1.00;;;10.34;100.00;100498.88;4998109;28;20053;-81
2023/12/29 10:11:42;;;;;;;5.18;3.67;;;11.80;1.00;;;10.16;100.00;100464.19;4978197;28;20046;-80
2023/12/29 10:14:30;;;;;;;5.32;3.80;;;11.40;1.00;;;10.18;100.00;100456.28;4993092;28;20054;-80
2023/12/29 10:17:12;;;;;;;6.50;4.25;;;11.50;1.00;;;10.02;100.00;100422.41;4981521;28;20053;-84
2023/12/29 10:19:58;;;;;;;4.90;3.70;;;11.50;1.00;;;9.97;100.00;100408.50;4981299;28;20057;-81